sensor_id;sensor_type;location;lat;lon;timestamp;pressure;altitude;pressure_sealevel;temperature
51149;BMP280;37210;50.058;8.688;2023-04-24T00:00:46;99038.91;;;14.78
51149;BMP280;37210;50.058;8.688;2023-04-24T00:03:14;99036.00;;;14.85
51149;BMP280;37210;50.058;8.688;2023-04-24T00:05:41;99036.72;;;14.66
51149;BMP280;37210;50.058;8.688;2023-04-24T00:08:08;99025.59;;;14.82
51149;BMP280;37210;50.058;8.688;2023-04-24T00:10:37;99027.91;;;14.91
51149;BMP280;37210;50.058;8.688;2023-04-24T00:13:05;99031.25;;;14.72
51149;BMP280;37210;50.058;8.688;2023-04-24T00:15:32;98996.84;;;14.28
51149;BMP280;37210;50.058;8.688;2023-04-24T00:18:00;99019.69;;;14.76
51149;BMP280;37210;50.058;8.688;2023-04-24T00:20:28;99023.81;;;14.58
51149;BMP280;37210;50.058;8.688;2023-04-24T00:22:58;98997.84;;;14.24
51149;BMP280;37210;50.058;8.688;2023-04-24T00:25:25;99017.16;;;14.50
51149;BMP280;37210;50.058;8.688;2023-04-24T00:27:54;99015.78;;;14.63
51149;BMP280;37210;50.058;8.688;2023-04-24T00:30:21;99007.34;;;14.78
51149;BMP280;37210;50.058;8.688;2023-04-24T00:32:49;98972.59;;;14.43
51149;BMP280;37210;50.058;8.688;2023-04-24T00:35:17;99009.41;;;14.93
51149;BMP280;37210;50.058;8.688;2023-04-24T00:37:45;98990.03;;;14.71
51149;BMP280;37210;50.058;8.688;2023-04-24T00:40:13;98991.72;;;14.49
51149;BMP280;37210;50.058;8.688;2023-04-24T00:42:43;99008.03;;;14.58
51149;BMP280;37210;50.058;8.688;2023-04-24T00:45:12;99003.19;;;14.48
51149;BMP280;37210;50.058;8.688;2023-04-24T00:47:41;98995.00;;;14.55
51149;BMP280;37210;50.058;8.688;2023-04-24T00:50:09;98999.91;;;14.41
51149;BMP280;37210;50.058;8.688;2023-04-24T00:52:39;98943.50;;;14.23
51149;BMP280;37210;50.058;8.688;2023-04-24T00:55:08;98914.97;;;13.88
51149;BMP280;37210;50.058;8.688;2023-04-24T00:57:36;98978.25;;;14.58
51149;BMP280;37210;50.058;8.688;2023-04-24T01:00:06;98951.69;;;14.40
51149;BMP280;37210;50.058;8.688;2023-04-24T01:02:38;98990.88;;;14.48
51149;BMP280;37210;50.058;8.688;2023-04-24T01:05:10;98994.50;;;14.19
51149;BMP280;37210;50.058;8.688;2023-04-24T01:07:39;98992.09;;;14.38
51149;BMP280;37210;50.058;8.688;2023-04-24T01:10:10;98971.88;;;14.40
51149;BMP280;37210;50.058;8.688;2023-04-24T01:12:38;98973.19;;;14.28
51149;BMP280;37210;50.058;8.688;2023-04-24T01:15:07;98987.00;;;14.33
51149;BMP280;37210;50.058;8.688;2023-04-24T01:17:35;98966.94;;;14.31
51149;BMP280;37210;50.058;8.688;2023-04-24T01:20:06;98966.38;;;14.46
51149;BMP280;37210;50.058;8.688;2023-04-24T01:22:36;98967.09;;;14.25
51149;BMP280;37210;50.058;8.688;2023-04-24T01:25:04;98948.56;;;14.29
51149;BMP280;37210;50.058;8.688;2023-04-24T01:27:32;98966.06;;;14.55
51149;BMP280;37210;50.058;8.688;2023-04-24T01:29:59;98967.53;;;14.39
51149;BMP280;37210;50.058;8.688;2023-04-24T01:32:30;98972.75;;;14.40
51149;BMP280;37210;50.058;8.688;2023-04-24T01:34:57;98957.41;;;14.28
51149;BMP280;37210;50.058;8.688;2023-04-24T01:37:25;98935.84;;;13.93
51149;BMP280;37210;50.058;8.688;2023-04-24T01:39:56;98970.00;;;14.17
51149;BMP280;37210;50.058;8.688;2023-04-24T01:42:25;98954.88;;;13.99
51149;BMP280;37210;50.058;8.688;2023-04-24T01:44:53;98970.09;;;13.90
51149;BMP280;37210;50.058;8.688;2023-04-24T01:47:22;98978.56;;;14.24
51149;BMP280;37210;50.058;8.688;2023-04-24T01:49:50;98966.69;;;14.38
51149;BMP280;37210;50.058;8.688;2023-04-24T01:52:18;98975.75;;;14.30
51149;BMP280;37210;50.058;8.688;2023-04-24T01:54:47;98972.00;;;14.11
51149;BMP280;37210;50.058;8.688;2023-04-24T01:57:16;98965.03;;;14.10
51149;BMP280;37210;50.058;8.688;2023-04-24T01:59:43;98931.28;;;13.72
51149;BMP280;37210;50.058;8.688;2023-04-24T02:02:11;98949.94;;;13.90
51149;BMP280;37210;50.058;8.688;2023-04-24T02:04:39;98960.09;;;14.01
51149;BMP280;37210;50.058;8.688;2023-04-24T02:07:06;98970.31;;;14.08
51149;BMP280;37210;50.058;8.688;2023-04-24T02:09:34;98961.75;;;14.03
51149;BMP280;37210;50.058;8.688;2023-04-24T02:12:01;98969.03;;;13.95
51149;BMP280;37210;50.058;8.688;2023-04-24T02:14:30;98908.94;;;13.60
51149;BMP280;37210;50.058;8.688;2023-04-24T02:16:57;98956.13;;;14.14
51149;BMP280;37210;50.058;8.688;2023-04-24T02:19:26;98945.63;;;14.12
51149;BMP280;37210;50.058;8.688;2023-04-24T02:21:54;98958.16;;;14.06
51149;BMP280;37210;50.058;8.688;2023-04-24T02:24:21;98956.63;;;13.74
51149;BMP280;37210;50.058;8.688;2023-04-24T02:26:49;98972.03;;;13.85
51149;BMP280;37210;50.058;8.688;2023-04-24T02:29:17;98970.44;;;13.79
51149;BMP280;37210;50.058;8.688;2023-04-24T02:31:49;98969.59;;;13.79
51149;BMP280;37210;50.058;8.688;2023-04-24T02:34:16;98940.47;;;13.60
51149;BMP280;37210;50.058;8.688;2023-04-24T02:36:43;98967.75;;;13.54
51149;BMP280;37210;50.058;8.688;2023-04-24T02:39:14;98935.38;;;13.28
51149;BMP280;37210;50.058;8.688;2023-04-24T02:41:47;98965.13;;;13.54
51149;BMP280;37210;50.058;8.688;2023-04-24T02:44:16;98966.91;;;13.54
51149;BMP280;37210;50.058;8.688;2023-04-24T02:46:44;98968.38;;;13.62
51149;BMP280;37210;50.058;8.688;2023-04-24T02:49:12;98977.13;;;13.89
51149;BMP280;37210;50.058;8.688;2023-04-24T02:51:40;98962.97;;;13.67
51149;BMP280;37210;50.058;8.688;2023-04-24T02:54:08;98979.81;;;13.61
51149;BMP280;37210;50.058;8.688;2023-04-24T02:56:36;98985.59;;;13.71
51149;BMP280;37210;50.058;8.688;2023-04-24T02:59:05;98988.56;;;13.62
51149;BMP280;37210;50.058;8.688;2023-04-24T03:01:32;98993.88;;;13.59
51149;BMP280;37210;50.058;8.688;2023-04-24T03:03:59;98994.69;;;13.87
51149;BMP280;37210;50.058;8.688;2023-04-24T03:06:28;98984.75;;;13.71
51149;BMP280;37210;50.058;8.688;2023-04-24T03:08:57;98994.22;;;13.76
51149;BMP280;37210;50.058;8.688;2023-04-24T03:11:25;98947.63;;;13.27
51149;BMP280;37210;50.058;8.688;2023-04-24T03:13:52;98993.44;;;13.73
51149;BMP280;37210;50.058;8.688;2023-04-24T03:16:20;98994.09;;;13.79
51149;BMP280;37210;50.058;8.688;2023-04-24T03:18:47;98992.59;;;13.72
51149;BMP280;37210;50.058;8.688;2023-04-24T03:21:15;98988.47;;;13.91
51149;BMP280;37210;50.058;8.688;2023-04-24T03:23:44;98994.22;;;13.76
51149;BMP280;37210;50.058;8.688;2023-04-24T03:26:12;98992.78;;;13.66
51149;BMP280;37210;50.058;8.688;2023-04-24T03:28:50;98989.91;;;13.46
51149;BMP280;37210;50.058;8.688;2023-04-24T03:31:17;99000.16;;;13.55
51149;BMP280;37210;50.058;8.688;2023-04-24T03:33:45;98996.56;;;13.57
51149;BMP280;37210;50.058;8.688;2023-04-24T03:36:12;99003.19;;;13.41
51149;BMP280;37210;50.058;8.688;2023-04-24T03:38:41;99007.00;;;13.33
51149;BMP280;37210;50.058;8.688;2023-04-24T03:41:28;99004.19;;;13.37
51149;BMP280;37210;50.058;8.688;2023-04-24T03:44:12;99014.16;;;13.55
51149;BMP280;37210;50.058;8.688;2023-04-24T03:46:41;99014.72;;;13.65
51149;BMP280;37210;50.058;8.688;2023-04-24T03:49:08;99023.50;;;13.64
51149;BMP280;37210;50.058;8.688;2023-04-24T03:51:40;99024.25;;;13.40
51149;BMP280;37210;50.058;8.688;2023-04-24T03:54:18;99034.00;;;13.36
51149;BMP280;37210;50.058;8.688;2023-04-24T03:56:47;99030.25;;;13.45
51149;BMP280;37210;50.058;8.688;2023-04-24T03:59:14;99035.19;;;13.54
51149;BMP280;37210;50.058;8.688;2023-04-24T04:01:46;99032.28;;;13.35
51149;BMP280;37210;50.058;8.688;2023-04-24T04:04:16;99003.00;;;13.20
51149;BMP280;37210;50.058;8.688;2023-04-24T04:06:44;99045.78;;;13.23
51149;BMP280;37210;50.058;8.688;2023-04-24T04:09:12;99051.75;;;13.56
51149;BMP280;37210;50.058;8.688;2023-04-24T04:11:40;99052.38;;;13.36
51149;BMP280;37210;50.058;8.688;2023-04-24T04:14:09;99059.34;;;13.37
51149;BMP280;37210;50.058;8.688;2023-04-24T04:16:39;99046.94;;;13.42
51149;BMP280;37210;50.058;8.688;2023-04-24T04:19:08;99056.50;;;13.16
51149;BMP280;37210;50.058;8.688;2023-04-24T04:21:35;99042.34;;;13.21
51149;BMP280;37210;50.058;8.688;2023-04-24T04:24:13;99064.72;;;13.04
51149;BMP280;37210;50.058;8.688;2023-04-24T04:26:44;99061.75;;;13.16
51149;BMP280;37210;50.058;8.688;2023-04-24T04:29:16;99061.84;;;13.13
51149;BMP280;37210;50.058;8.688;2023-04-24T04:31:45;99059.13;;;13.16
51149;BMP280;37210;50.058;8.688;2023-04-24T04:34:13;99051.72;;;13.30
51149;BMP280;37210;50.058;8.688;2023-04-24T04:36:42;99062.94;;;13.35
51149;BMP280;37210;50.058;8.688;2023-04-24T04:39:28;99074.53;;;13.28
51149;BMP280;37210;50.058;8.688;2023-04-24T04:42:00;99074.59;;;12.94
51149;BMP280;37210;50.058;8.688;2023-04-24T04:44:36;99072.06;;;12.91
51149;BMP280;37210;50.058;8.688;2023-04-24T04:47:05;99084.38;;;12.89
51149;BMP280;37210;50.058;8.688;2023-04-24T04:49:36;99076.66;;;12.83
51149;BMP280;37210;50.058;8.688;2023-04-24T04:52:07;99096.00;;;12.79
51149;BMP280;37210;50.058;8.688;2023-04-24T04:54:34;99091.09;;;12.98
51149;BMP280;37210;50.058;8.688;2023-04-24T04:57:02;99090.97;;;13.04
51149;BMP280;37210;50.058;8.688;2023-04-24T04:59:29;99100.31;;;12.81
51149;BMP280;37210;50.058;8.688;2023-04-24T05:02:04;99108.00;;;12.88
51149;BMP280;37210;50.058;8.688;2023-04-24T05:04:31;99070.34;;;12.90
51149;BMP280;37210;50.058;8.688;2023-04-24T05:06:59;99104.16;;;13.31
51149;BMP280;37210;50.058;8.688;2023-04-24T05:09:29;99104.00;;;13.07
51149;BMP280;37210;50.058;8.688;2023-04-24T05:12:01;99109.59;;;13.25
51149;BMP280;37210;50.058;8.688;2023-04-24T05:14:33;99114.09;;;13.51
51149;BMP280;37210;50.058;8.688;2023-04-24T05:17:00;99125.25;;;13.59
51149;BMP280;37210;50.058;8.688;2023-04-24T05:19:31;99118.28;;;13.86
51149;BMP280;37210;50.058;8.688;2023-04-24T05:22:01;99118.28;;;14.13
51149;BMP280;37210;50.058;8.688;2023-04-24T05:24:30;99129.69;;;14.40
51149;BMP280;37210;50.058;8.688;2023-04-24T05:27:08;99131.63;;;14.35
51149;BMP280;37210;50.058;8.688;2023-04-24T05:29:39;99140.03;;;14.71
51149;BMP280;37210;50.058;8.688;2023-04-24T05:32:08;99142.34;;;15.06
51149;BMP280;37210;50.058;8.688;2023-04-24T05:34:37;99142.91;;;15.14
51149;BMP280;37210;50.058;8.688;2023-04-24T05:37:05;99150.44;;;15.49
51149;BMP280;37210;50.058;8.688;2023-04-24T05:39:34;99150.38;;;15.51
51149;BMP280;37210;50.058;8.688;2023-04-24T05:42:04;99134.31;;;15.57
51149;BMP280;37210;50.058;8.688;2023-04-24T05:44:31;99161.34;;;15.39
51149;BMP280;37210;50.058;8.688;2023-04-24T05:46:59;99162.75;;;15.49
51149;BMP280;37210;50.058;8.688;2023-04-24T05:49:28;99158.34;;;15.72
51149;BMP280;37210;50.058;8.688;2023-04-24T05:51:57;99162.16;;;15.87
51149;BMP280;37210;50.058;8.688;2023-04-24T05:54:25;99166.53;;;16.31
51149;BMP280;37210;50.058;8.688;2023-04-24T05:56:53;99171.13;;;16.49
51149;BMP280;37210;50.058;8.688;2023-04-24T05:59:31;99170.19;;;17.12
51149;BMP280;37210;50.058;8.688;2023-04-24T06:01:59;99154.81;;;17.02
51149;BMP280;37210;50.058;8.688;2023-04-24T06:04:26;99164.97;;;17.51
51149;BMP280;37210;50.058;8.688;2023-04-24T06:06:54;99166.34;;;17.97
51149;BMP280;37210;50.058;8.688;2023-04-24T06:09:23;99165.06;;;17.87
51149;BMP280;37210;50.058;8.688;2023-04-24T06:11:51;99160.91;;;17.63
51149;BMP280;37210;50.058;8.688;2023-04-24T06:14:22;99172.63;;;17.17
51149;BMP280;37210;50.058;8.688;2023-04-24T06:17:08;99189.34;;;17.37
51149;BMP280;37210;50.058;8.688;2023-04-24T06:19:39;99182.56;;;17.52
51149;BMP280;37210;50.058;8.688;2023-04-24T06:22:07;99191.13;;;17.37
51149;BMP280;37210;50.058;8.688;2023-04-24T06:24:37;99185.84;;;17.76
51149;BMP280;37210;50.058;8.688;2023-04-24T06:27:04;99192.81;;;17.38
51149;BMP280;37210;50.058;8.688;2023-04-24T06:29:33;99198.91;;;17.60
51149;BMP280;37210;50.058;8.688;2023-04-24T06:32:01;99189.84;;;17.66
51149;BMP280;37210;50.058;8.688;2023-04-24T06:34:28;99189.16;;;17.81
51149;BMP280;37210;50.058;8.688;2023-04-24T06:36:56;99179.44;;;18.18
51149;BMP280;37210;50.058;8.688;2023-04-24T06:39:24;99183.31;;;18.83
51149;BMP280;37210;50.058;8.688;2023-04-24T06:41:52;99180.28;;;18.90
51149;BMP280;37210;50.058;8.688;2023-04-24T06:44:20;99191.84;;;18.35
51149;BMP280;37210;50.058;8.688;2023-04-24T06:46:48;99190.94;;;17.99
51149;BMP280;37210;50.058;8.688;2023-04-24T06:49:15;99206.03;;;17.97
51149;BMP280;37210;50.058;8.688;2023-04-24T06:51:43;99214.59;;;17.04
51149;BMP280;37210;50.058;8.688;2023-04-24T06:54:11;99212.47;;;17.32
51149;BMP280;37210;50.058;8.688;2023-04-24T06:56:38;99210.50;;;17.58
51149;BMP280;37210;50.058;8.688;2023-04-24T06:59:07;99217.34;;;17.21
51149;BMP280;37210;50.058;8.688;2023-04-24T07:01:35;99200.59;;;18.37
51149;BMP280;37210;50.058;8.688;2023-04-24T07:04:02;99192.22;;;17.72
51149;BMP280;37210;50.058;8.688;2023-04-24T07:06:29;99192.09;;;18.12
51149;BMP280;37210;50.058;8.688;2023-04-24T07:08:57;99201.81;;;18.49
51149;BMP280;37210;50.058;8.688;2023-04-24T07:11:26;99195.97;;;19.12
51149;BMP280;37210;50.058;8.688;2023-04-24T07:13:55;99179.31;;;19.60
51149;BMP280;37210;50.058;8.688;2023-04-24T07:16:24;99183.09;;;19.71
51149;BMP280;37210;50.058;8.688;2023-04-24T07:18:52;99167.00;;;20.23
51149;BMP280;37210;50.058;8.688;2023-04-24T07:21:19;99181.38;;;20.95
51149;BMP280;37210;50.058;8.688;2023-04-24T07:23:46;99174.34;;;21.24
51149;BMP280;37210;50.058;8.688;2023-04-24T07:26:14;99170.75;;;20.34
51149;BMP280;37210;50.058;8.688;2023-04-24T07:28:41;99171.16;;;21.03
51149;BMP280;37210;50.058;8.688;2023-04-24T07:31:11;99162.78;;;21.39
51149;BMP280;37210;50.058;8.688;2023-04-24T07:33:39;99159.22;;;21.96
51149;BMP280;37210;50.058;8.688;2023-04-24T07:36:07;99167.06;;;21.56
51149;BMP280;37210;50.058;8.688;2023-04-24T07:38:41;99174.06;;;20.99
51149;BMP280;37210;50.058;8.688;2023-04-24T07:41:08;99175.75;;;20.86
51149;BMP280;37210;50.058;8.688;2023-04-24T07:43:36;99149.59;;;21.66
51149;BMP280;37210;50.058;8.688;2023-04-24T07:46:05;99160.94;;;21.11
51149;BMP280;37210;50.058;8.688;2023-04-24T07:48:33;99147.13;;;21.48
51149;BMP280;37210;50.058;8.688;2023-04-24T07:51:02;99141.22;;;22.00
51149;BMP280;37210;50.058;8.688;2023-04-24T07:53:30;99166.81;;;20.87
51149;BMP280;37210;50.058;8.688;2023-04-24T07:55:57;99170.56;;;20.68
51149;BMP280;37210;50.058;8.688;2023-04-24T07:58:24;99162.81;;;21.09
51149;BMP280;37210;50.058;8.688;2023-04-24T08:00:52;99165.66;;;21.36
51149;BMP280;37210;50.058;8.688;2023-04-24T08:03:20;99159.47;;;20.31
51149;BMP280;37210;50.058;8.688;2023-04-24T08:05:47;99178.69;;;19.87
51149;BMP280;37210;50.058;8.688;2023-04-24T08:08:15;99199.91;;;18.86
51149;BMP280;37210;50.058;8.688;2023-04-24T08:10:43;99193.72;;;19.04
51149;BMP280;37210;50.058;8.688;2023-04-24T08:13:10;99183.50;;;19.48
51149;BMP280;37210;50.058;8.688;2023-04-24T08:15:38;99157.53;;;19.38
51149;BMP280;37210;50.058;8.688;2023-04-24T08:18:05;99183.75;;;18.38
51149;BMP280;37210;50.058;8.688;2023-04-24T08:20:34;99196.00;;;17.66
51149;BMP280;37210;50.058;8.688;2023-04-24T08:23:02;99197.19;;;17.98
51149;BMP280;37210;50.058;8.688;2023-04-24T08:25:31;99040.53;;;17.91
51149;BMP280;37210;50.058;8.688;2023-04-24T08:28:02;99192.84;;;18.32
51149;BMP280;37210;50.058;8.688;2023-04-24T08:30:29;99169.91;;;19.20
51149;BMP280;37210;50.058;8.688;2023-04-24T08:32:57;99188.47;;;19.03
51149;BMP280;37210;50.058;8.688;2023-04-24T08:35:25;99211.53;;;18.84
51149;BMP280;37210;50.058;8.688;2023-04-24T08:37:52;99211.31;;;18.15
51149;BMP280;37210;50.058;8.688;2023-04-24T08:40:26;99206.09;;;18.14
51149;BMP280;37210;50.058;8.688;2023-04-24T08:42:58;99226.75;;;17.69
51149;BMP280;37210;50.058;8.688;2023-04-24T08:45:26;99239.34;;;17.42
51149;BMP280;37210;50.058;8.688;2023-04-24T08:47:54;99229.13;;;17.93
51149;BMP280;37210;50.058;8.688;2023-04-24T08:50:21;99229.00;;;19.22
51149;BMP280;37210;50.058;8.688;2023-04-24T08:52:50;99229.97;;;19.21
51149;BMP280;37210;50.058;8.688;2023-04-24T08:55:19;99227.38;;;18.50
51149;BMP280;37210;50.058;8.688;2023-04-24T08:57:50;99231.34;;;18.40
51149;BMP280;37210;50.058;8.688;2023-04-24T09:00:21;99245.09;;;17.72
51149;BMP280;37210;50.058;8.688;2023-04-24T09:02:50;99251.56;;;17.44
51149;BMP280;37210;50.058;8.688;2023-04-24T09:05:17;99254.31;;;17.01
51149;BMP280;37210;50.058;8.688;2023-04-24T09:07:49;99271.41;;;16.49
51149;BMP280;37210;50.058;8.688;2023-04-24T09:10:24;99267.81;;;15.82
51149;BMP280;37210;50.058;8.688;2023-04-24T09:12:52;99242.13;;;15.64
51149;BMP280;37210;50.058;8.688;2023-04-24T09:15:23;99263.09;;;16.14
51149;BMP280;37210;50.058;8.688;2023-04-24T09:17:51;99286.34;;;16.04
51149;BMP280;37210;50.058;8.688;2023-04-24T09:20:19;99284.84;;;15.97
51149;BMP280;37210;50.058;8.688;2023-04-24T09:22:47;99252.03;;;15.32
51149;BMP280;37210;50.058;8.688;2023-04-24T09:25:14;99269.72;;;15.77
51149;BMP280;37210;50.058;8.688;2023-04-24T09:27:43;99278.75;;;15.47
51149;BMP280;37210;50.058;8.688;2023-04-24T09:30:12;99299.97;;;15.43
51149;BMP280;37210;50.058;8.688;2023-04-24T09:32:41;99293.69;;;15.47
51149;BMP280;37210;50.058;8.688;2023-04-24T09:35:11;99305.69;;;15.29
51149;BMP280;37210;50.058;8.688;2023-04-24T09:37:41;99290.50;;;15.37
51149;BMP280;37210;50.058;8.688;2023-04-24T09:40:14;99305.16;;;15.46
51149;BMP280;37210;50.058;8.688;2023-04-24T09:42:51;99317.75;;;15.10
51149;BMP280;37210;50.058;8.688;2023-04-24T09:45:20;99321.09;;;15.41
51149;BMP280;37210;50.058;8.688;2023-04-24T09:47:52;99314.09;;;15.40
51149;BMP280;37210;50.058;8.688;2023-04-24T09:50:21;99231.34;;;14.69
51149;BMP280;37210;50.058;8.688;2023-04-24T09:52:56;99329.84;;;15.15
51149;BMP280;37210;50.058;8.688;2023-04-24T09:55:25;99314.44;;;15.30
51149;BMP280;37210;50.058;8.688;2023-04-24T09:57:54;99314.03;;;15.43
51149;BMP280;37210;50.058;8.688;2023-04-24T10:00:23;99237.63;;;15.17
51149;BMP280;37210;50.058;8.688;2023-04-24T10:02:57;99292.69;;;15.25
51149;BMP280;37210;50.058;8.688;2023-04-24T10:05:30;99268.22;;;14.95
51149;BMP280;37210;50.058;8.688;2023-04-24T10:08:01;99321.13;;;15.40
51149;BMP280;37210;50.058;8.688;2023-04-24T10:10:31;99310.44;;;14.92
51149;BMP280;37210;50.058;8.688;2023-04-24T10:12:59;99325.09;;;15.27
51149;BMP280;37210;50.058;8.688;2023-04-24T10:15:27;99316.47;;;15.21
51149;BMP280;37210;50.058;8.688;2023-04-24T10:17:59;99323.13;;;15.07
51149;BMP280;37210;50.058;8.688;2023-04-24T10:20:27;99341.25;;;15.16
51149;BMP280;37210;50.058;8.688;2023-04-24T10:22:57;99323.75;;;14.87
51149;BMP280;37210;50.058;8.688;2023-04-24T10:25:27;99262.63;;;14.22
51149;BMP280;37210;50.058;8.688;2023-04-24T10:27:57;99350.72;;;14.68
51149;BMP280;37210;50.058;8.688;2023-04-24T10:30:27;99346.88;;;15.05
51149;BMP280;37210;50.058;8.688;2023-04-24T10:32:56;99346.41;;;14.93
51149;BMP280;37210;50.058;8.688;2023-04-24T10:35:24;99332.72;;;14.82
51149;BMP280;37210;50.058;8.688;2023-04-24T10:37:56;99354.16;;;14.97
51149;BMP280;37210;50.058;8.688;2023-04-24T10:40:30;99293.19;;;14.56
51149;BMP280;37210;50.058;8.688;2023-04-24T10:42:59;99362.97;;;14.96
51149;BMP280;37210;50.058;8.688;2023-04-24T10:45:32;99363.34;;;15.12
51149;BMP280;37210;50.058;8.688;2023-04-24T10:48:01;99368.63;;;15.12
51149;BMP280;37210;50.058;8.688;2023-04-24T10:50:43;99387.28;;;14.77
51149;BMP280;37210;50.058;8.688;2023-04-24T10:53:13;99368.53;;;14.58
51149;BMP280;37210;50.058;8.688;2023-04-24T10:55:44;99371.84;;;14.65
51149;BMP280;37210;50.058;8.688;2023-04-24T10:58:14;99334.13;;;14.93
51149;BMP280;37210;50.058;8.688;2023-04-24T11:00:43;99403.69;;;15.12
51149;BMP280;37210;50.058;8.688;2023-04-24T11:03:24;99404.56;;;14.56
51149;BMP280;37210;50.058;8.688;2023-04-24T11:05:56;99418.53;;;14.87
51149;BMP280;37210;50.058;8.688;2023-04-24T11:08:27;99410.91;;;15.34
51149;BMP280;37210;50.058;8.688;2023-04-24T11:11:01;99403.63;;;15.43
51149;BMP280;37210;50.058;8.688;2023-04-24T11:14:05;99406.84;;;15.23
51149;BMP280;37210;50.058;8.688;2023-04-24T11:16:38;99400.81;;;15.98
51149;BMP280;37210;50.058;8.688;2023-04-24T11:19:09;99380.38;;;15.80
51149;BMP280;37210;50.058;8.688;2023-04-24T11:21:46;99393.88;;;16.21
51149;BMP280;37210;50.058;8.688;2023-04-24T11:24:29;99387.78;;;16.42
51149;BMP280;37210;50.058;8.688;2023-04-24T11:27:04;99397.38;;;16.44
51149;BMP280;37210;50.058;8.688;2023-04-24T11:29:42;99389.63;;;16.40
51149;BMP280;37210;50.058;8.688;2023-04-24T11:32:15;99394.84;;;16.66
51149;BMP280;37210;50.058;8.688;2023-04-24T11:34:49;99391.78;;;16.76
51149;BMP280;37210;50.058;8.688;2023-04-24T11:37:19;99376.31;;;17.11
51149;BMP280;37210;50.058;8.688;2023-04-24T11:39:50;99370.13;;;16.90
51149;BMP280;37210;50.058;8.688;2023-04-24T11:42:20;99367.41;;;17.13
51149;BMP280;37210;50.058;8.688;2023-04-24T11:44:49;99378.94;;;17.12
51149;BMP280;37210;50.058;8.688;2023-04-24T11:47:18;99378.84;;;17.57
51149;BMP280;37210;50.058;8.688;2023-04-24T11:49:46;99378.03;;;16.68
51149;BMP280;37210;50.058;8.688;2023-04-24T11:52:19;99389.13;;;17.00
51149;BMP280;37210;50.058;8.688;2023-04-24T11:54:48;99392.94;;;17.14
51149;BMP280;37210;50.058;8.688;2023-04-24T11:57:18;99395.00;;;16.85
51149;BMP280;37210;50.058;8.688;2023-04-24T11:59:46;99406.41;;;17.08
51149;BMP280;37210;50.058;8.688;2023-04-24T12:02:22;99388.44;;;16.95
51149;BMP280;37210;50.058;8.688;2023-04-24T12:04:49;99410.13;;;17.24
51149;BMP280;37210;50.058;8.688;2023-04-24T12:07:19;99404.31;;;17.60
51149;BMP280;37210;50.058;8.688;2023-04-24T12:09:48;99394.34;;;17.66
51149;BMP280;37210;50.058;8.688;2023-04-24T12:12:24;99401.66;;;17.60
51149;BMP280;37210;50.058;8.688;2023-04-24T12:14:55;99387.56;;;17.59
51149;BMP280;37210;50.058;8.688;2023-04-24T12:17:24;99374.66;;;17.30
51149;BMP280;37210;50.058;8.688;2023-04-24T12:19:57;99378.81;;;16.47
51149;BMP280;37210;50.058;8.688;2023-04-24T12:22:35;99390.19;;;16.72
51149;BMP280;37210;50.058;8.688;2023-04-24T12:25:13;99408.53;;;16.75
51149;BMP280;37210;50.058;8.688;2023-04-24T12:27:42;99437.69;;;16.00
51149;BMP280;37210;50.058;8.688;2023-04-24T12:30:12;99445.56;;;15.21
51149;BMP280;37210;50.058;8.688;2023-04-24T12:32:42;99422.19;;;15.39
51149;BMP280;37210;50.058;8.688;2023-04-24T12:35:10;99455.66;;;15.63
51149;BMP280;37210;50.058;8.688;2023-04-24T12:37:42;99446.00;;;15.08
51149;BMP280;37210;50.058;8.688;2023-04-24T12:40:11;99450.53;;;15.03
51149;BMP280;37210;50.058;8.688;2023-04-24T12:42:42;99433.63;;;15.10
51149;BMP280;37210;50.058;8.688;2023-04-24T12:45:11;99441.91;;;14.98
51149;BMP280;37210;50.058;8.688;2023-04-24T12:47:39;99435.88;;;14.94
51149;BMP280;37210;50.058;8.688;2023-04-24T12:50:08;99413.22;;;15.16
51149;BMP280;37210;50.058;8.688;2023-04-24T12:52:36;99431.72;;;15.15
51149;BMP280;37210;50.058;8.688;2023-04-24T12:55:07;99435.91;;;15.50
51149;BMP280;37210;50.058;8.688;2023-04-24T12:57:36;99401.06;;;14.85
51149;BMP280;37210;50.058;8.688;2023-04-24T13:00:08;99421.38;;;15.37
51149;BMP280;37210;50.058;8.688;2023-04-24T13:02:36;99436.41;;;15.61
51149;BMP280;37210;50.058;8.688;2023-04-24T13:05:04;99425.81;;;15.62
51149;BMP280;37210;50.058;8.688;2023-04-24T13:07:32;99423.09;;;15.90
51149;BMP280;37210;50.058;8.688;2023-04-24T13:10:00;99426.81;;;16.09
51149;BMP280;37210;50.058;8.688;2023-04-24T13:12:29;99420.28;;;16.68
51149;BMP280;37210;50.058;8.688;2023-04-24T13:14:57;99406.22;;;16.43
51149;BMP280;37210;50.058;8.688;2023-04-24T13:17:25;99412.06;;;16.76
51149;BMP280;37210;50.058;8.688;2023-04-24T13:19:54;99417.91;;;16.61
51149;BMP280;37210;50.058;8.688;2023-04-24T13:22:22;99423.81;;;16.91
51149;BMP280;37210;50.058;8.688;2023-04-24T13:24:49;99418.03;;;17.03
51149;BMP280;37210;50.058;8.688;2023-04-24T13:27:17;99417.06;;;16.60
51149;BMP280;37210;50.058;8.688;2023-04-24T13:29:46;99431.00;;;16.64
51149;BMP280;37210;50.058;8.688;2023-04-24T13:32:13;99433.22;;;16.51
51149;BMP280;37210;50.058;8.688;2023-04-24T13:34:40;99426.22;;;16.26
51149;BMP280;37210;50.058;8.688;2023-04-24T13:37:08;99432.75;;;16.16
51149;BMP280;37210;50.058;8.688;2023-04-24T13:39:35;99410.34;;;16.02
51149;BMP280;37210;50.058;8.688;2023-04-24T13:42:03;99437.72;;;16.49
51149;BMP280;37210;50.058;8.688;2023-04-24T13:44:30;99448.03;;;16.06
51149;BMP280;37210;50.058;8.688;2023-04-24T13:46:59;99435.31;;;15.92
51149;BMP280;37210;50.058;8.688;2023-04-24T13:49:27;99442.59;;;16.11
51149;BMP280;37210;50.058;8.688;2023-04-24T13:51:56;99446.41;;;16.02
51149;BMP280;37210;50.058;8.688;2023-04-24T13:54:23;99446.50;;;16.48
51149;BMP280;37210;50.058;8.688;2023-04-24T13:56:52;99437.84;;;16.45
51149;BMP280;37210;50.058;8.688;2023-04-24T13:59:19;99447.31;;;16.52
51149;BMP280;37210;50.058;8.688;2023-04-24T14:01:47;99458.31;;;16.38
51149;BMP280;37210;50.058;8.688;2023-04-24T14:04:16;99452.31;;;16.10
51149;BMP280;37210;50.058;8.688;2023-04-24T14:06:44;99468.78;;;15.90
51149;BMP280;37210;50.058;8.688;2023-04-24T14:09:11;99461.47;;;15.98
51149;BMP280;37210;50.058;8.688;2023-04-24T14:11:38;99452.59;;;16.01
51149;BMP280;37210;50.058;8.688;2023-04-24T14:14:06;99468.34;;;16.04
51149;BMP280;37210;50.058;8.688;2023-04-24T14:16:34;99453.53;;;16.25
51149;BMP280;37210;50.058;8.688;2023-04-24T14:19:01;99444.59;;;16.29
51149;BMP280;37210;50.058;8.688;2023-04-24T14:21:30;99449.88;;;16.29